Accueil
METAR-TAF:

METAR-TAF

Aéroports :

Capo Mele

Andora, Italie

latitude: 43-57N, longitude: 008-10E, altitude: 220 m

Observation

Le bulletin a été fait il y a 8 heures et 15 minutes, à 17:55 UTC
Vent 10 kt de est/nord-est avec des rafales jusqu'à 24 kt
Température 25°C
Humidité 69%
Pression 1004 hPa
Visibilité 10 km ou plus
pas de nuages en-dessous de 1500 mètres et pas de cumulonimbus.

METAR: LIMU 011755Z 06010G24KT CAVOK 25/19 Q1004 RMK FEW FEW200 QUK 3 QUL 2 S VIS MAR 20 KM VIS MIN 9999

Heure: 04:10 (02:10 UTC)


TAF: absent

Observations et prévisions météorologiques de plus de 4000 aéroports (messages METAR et TAF).

Les stations disponibles sont représentées par des disques jaunes et rouges sur la carte.

Passer la souris dessus pour voir le nom de la station.

Cliquer dessus pour voir les observations et prévisions météorologiques.

Pour changer de carte: cliquez sur les boutons verts avec une croix noire pour zoomer, sur le bouton vert avec un tiret pour effectuer un zoom arrière, ou sur les flèches vertes pour les cartes adjacentes.


METAR-TAF: